sensor_id;sensor_type;location;lat;lon;timestamp;temperature;humidity
3262;DHT22;1643;47.746;9.000;2022-07-23T00:01:36;24.10;99.90
3262;DHT22;1643;47.746;9.000;2022-07-23T00:04:02;24.00;99.90
3262;DHT22;1643;47.746;9.000;2022-07-23T00:06:27;23.90;99.90
3262;DHT22;1643;47.746;9.000;2022-07-23T00:08:53;24.00;99.90
3262;DHT22;1643;47.746;9.000;2022-07-23T00:11:19;24.00;99.90
3262;DHT22;1643;47.746;9.000;2022-07-23T00:13:45;24.10;99.90
3262;DHT22;1643;47.746;9.000;2022-07-23T00:16:11;24.10;99.90
3262;DHT22;1643;47.746;9.000;2022-07-23T00:18:36;24.10;99.90
3262;DHT22;1643;47.746;9.000;2022-07-23T00:21:02;24.10;99.90
3262;DHT22;1643;47.746;9.000;2022-07-23T00:23:28;24.00;99.90
3262;DHT22;1643;47.746;9.000;2022-07-23T00:25:55;23.90;99.90
3262;DHT22;1643;47.746;9.000;2022-07-23T00:28:20;23.90;99.90
3262;DHT22;1643;47.746;9.000;2022-07-23T00:30:46;23.90;99.90
3262;DHT22;1643;47.746;9.000;2022-07-23T00:33:12;23.90;99.90
3262;DHT22;1643;47.746;9.000;2022-07-23T00:35:39;23.90;99.90
3262;DHT22;1643;47.746;9.000;2022-07-23T00:38:07;23.90;99.90
3262;DHT22;1643;47.746;9.000;2022-07-23T00:40:33;24.00;99.90
3262;DHT22;1643;47.746;9.000;2022-07-23T00:42:59;24.00;99.90
3262;DHT22;1643;47.746;9.000;2022-07-23T00:45:25;24.00;99.90
3262;DHT22;1643;47.746;9.000;2022-07-23T00:47:51;24.00;99.90
3262;DHT22;1643;47.746;9.000;2022-07-23T00:50:16;24.00;99.90
3262;DHT22;1643;47.746;9.000;2022-07-23T00:52:42;23.90;99.90
3262;DHT22;1643;47.746;9.000;2022-07-23T00:55:09;23.80;99.90
3262;DHT22;1643;47.746;9.000;2022-07-23T00:57:37;23.70;99.90
3262;DHT22;1643;47.746;9.000;2022-07-23T01:00:05;23.60;99.90
3262;DHT22;1643;47.746;9.000;2022-07-23T01:02:31;23.60;99.90
3262;DHT22;1643;47.746;9.000;2022-07-23T01:04:57;23.40;99.90
3262;DHT22;1643;47.746;9.000;2022-07-23T01:07:23;23.40;99.90
3262;DHT22;1643;47.746;9.000;2022-07-23T01:09:51;23.40;99.90
3262;DHT22;1643;47.746;9.000;2022-07-23T01:12:17;23.30;99.90
3262;DHT22;1643;47.746;9.000;2022-07-23T01:14:43;23.30;99.90
3262;DHT22;1643;47.746;9.000;2022-07-23T01:17:09;23.30;99.90
3262;DHT22;1643;47.746;9.000;2022-07-23T01:19:35;23.20;99.90
3262;DHT22;1643;47.746;9.000;2022-07-23T01:22:03;23.10;99.90
3262;DHT22;1643;47.746;9.000;2022-07-23T01:24:28;23.00;99.90
3262;DHT22;1643;47.746;9.000;2022-07-23T01:26:54;23.00;99.90
3262;DHT22;1643;47.746;9.000;2022-07-23T01:29:20;22.90;99.90
3262;DHT22;1643;47.746;9.000;2022-07-23T01:31:47;23.00;99.90
3262;DHT22;1643;47.746;9.000;2022-07-23T01:34:12;23.10;99.90
3262;DHT22;1643;47.746;9.000;2022-07-23T01:36:38;23.10;99.90
3262;DHT22;1643;47.746;9.000;2022-07-23T01:39:06;23.10;99.90
3262;DHT22;1643;47.746;9.000;2022-07-23T01:41:32;23.00;99.90
3262;DHT22;1643;47.746;9.000;2022-07-23T01:43:58;22.90;99.90
3262;DHT22;1643;47.746;9.000;2022-07-23T01:46:24;22.80;99.90
3262;DHT22;1643;47.746;9.000;2022-07-23T01:48:49;22.70;99.90
3262;DHT22;1643;47.746;9.000;2022-07-23T01:51:15;22.70;99.90
3262;DHT22;1643;47.746;9.000;2022-07-23T01:53:41;22.60;99.90
3262;DHT22;1643;47.746;9.000;2022-07-23T01:56:07;22.70;99.90
3262;DHT22;1643;47.746;9.000;2022-07-23T01:58:32;22.60;99.90
3262;DHT22;1643;47.746;9.000;2022-07-23T02:00:58;22.60;99.90
3262;DHT22;1643;47.746;9.000;2022-07-23T02:03:24;22.60;99.90
3262;DHT22;1643;47.746;9.000;2022-07-23T02:05:50;22.90;99.90
3262;DHT22;1643;47.746;9.000;2022-07-23T02:08:16;22.70;99.90
3262;DHT22;1643;47.746;9.000;2022-07-23T02:10:42;22.70;99.90
3262;DHT22;1643;47.746;9.000;2022-07-23T02:13:08;22.80;99.90
3262;DHT22;1643;47.746;9.000;2022-07-23T02:15:33;22.70;99.90
3262;DHT22;1643;47.746;9.000;2022-07-23T02:17:59;22.70;99.90
3262;DHT22;1643;47.746;9.000;2022-07-23T02:20:25;22.70;99.90
3262;DHT22;1643;47.746;9.000;2022-07-23T02:22:51;22.70;99.90
3262;DHT22;1643;47.746;9.000;2022-07-23T02:25:16;22.70;99.90
3262;DHT22;1643;47.746;9.000;2022-07-23T02:27:42;22.70;99.90
3262;DHT22;1643;47.746;9.000;2022-07-23T02:30:08;22.60;99.90
3262;DHT22;1643;47.746;9.000;2022-07-23T02:32:34;22.60;99.90
3262;DHT22;1643;47.746;9.000;2022-07-23T02:35:00;22.60;99.90
3262;DHT22;1643;47.746;9.000;2022-07-23T02:37:26;22.50;99.90
3262;DHT22;1643;47.746;9.000;2022-07-23T02:39:52;22.50;99.90
3262;DHT22;1643;47.746;9.000;2022-07-23T02:42:17;22.50;99.90
3262;DHT22;1643;47.746;9.000;2022-07-23T02:44:43;22.50;99.90
3262;DHT22;1643;47.746;9.000;2022-07-23T02:47:09;22.50;99.90
3262;DHT22;1643;47.746;9.000;2022-07-23T02:49:34;22.50;99.90
3262;DHT22;1643;47.746;9.000;2022-07-23T02:52:00;22.40;99.90
3262;DHT22;1643;47.746;9.000;2022-07-23T02:54:26;22.40;99.90
3262;DHT22;1643;47.746;9.000;2022-07-23T02:56:52;22.40;99.90
3262;DHT22;1643;47.746;9.000;2022-07-23T02:59:18;22.50;99.90
3262;DHT22;1643;47.746;9.000;2022-07-23T03:01:44;22.50;99.90
3262;DHT22;1643;47.746;9.000;2022-07-23T03:04:10;22.60;99.90
3262;DHT22;1643;47.746;9.000;2022-07-23T03:06:36;22.60;99.90
3262;DHT22;1643;47.746;9.000;2022-07-23T03:09:02;22.50;99.90
3262;DHT22;1643;47.746;9.000;2022-07-23T03:11:28;22.40;99.90
3262;DHT22;1643;47.746;9.000;2022-07-23T03:13:53;22.40;99.90
3262;DHT22;1643;47.746;9.000;2022-07-23T03:16:19;22.40;99.90
3262;DHT22;1643;47.746;9.000;2022-07-23T03:18:45;22.40;99.90
3262;DHT22;1643;47.746;9.000;2022-07-23T03:21:10;22.40;99.90
3262;DHT22;1643;47.746;9.000;2022-07-23T03:23:36;22.50;99.90
3262;DHT22;1643;47.746;9.000;2022-07-23T03:26:01;22.40;99.90
3262;DHT22;1643;47.746;9.000;2022-07-23T03:28:27;22.30;99.90
3262;DHT22;1643;47.746;9.000;2022-07-23T03:30:53;22.20;99.90
3262;DHT22;1643;47.746;9.000;2022-07-23T03:33:20;22.20;99.90
3262;DHT22;1643;47.746;9.000;2022-07-23T03:35:47;22.10;99.90
3262;DHT22;1643;47.746;9.000;2022-07-23T03:38:13;22.20;99.90
3262;DHT22;1643;47.746;9.000;2022-07-23T03:40:39;22.20;99.90
3262;DHT22;1643;47.746;9.000;2022-07-23T03:43:04;22.20;99.90
3262;DHT22;1643;47.746;9.000;2022-07-23T03:45:30;22.20;99.90
3262;DHT22;1643;47.746;9.000;2022-07-23T03:47:56;22.20;99.90
3262;DHT22;1643;47.746;9.000;2022-07-23T03:50:22;22.10;99.90
3262;DHT22;1643;47.746;9.000;2022-07-23T03:52:47;22.20;99.90
3262;DHT22;1643;47.746;9.000;2022-07-23T03:55:13;22.20;99.90
3262;DHT22;1643;47.746;9.000;2022-07-23T03:57:39;22.20;99.90
3262;DHT22;1643;47.746;9.000;2022-07-23T04:00:07;22.30;99.90
3262;DHT22;1643;47.746;9.000;2022-07-23T04:02:35;22.30;99.90
3262;DHT22;1643;47.746;9.000;2022-07-23T04:05:00;22.20;99.90
3262;DHT22;1643;47.746;9.000;2022-07-23T04:07:26;22.10;99.90
3262;DHT22;1643;47.746;9.000;2022-07-23T04:09:52;22.10;99.90
3262;DHT22;1643;47.746;9.000;2022-07-23T04:12:18;22.00;99.90
3262;DHT22;1643;47.746;9.000;2022-07-23T04:14:44;22.00;99.90
3262;DHT22;1643;47.746;9.000;2022-07-23T04:17:10;22.00;99.90
3262;DHT22;1643;47.746;9.000;2022-07-23T04:19:35;21.90;99.90
3262;DHT22;1643;47.746;9.000;2022-07-23T04:22:05;21.80;99.90
3262;DHT22;1643;47.746;9.000;2022-07-23T04:24:31;21.80;99.90
3262;DHT22;1643;47.746;9.000;2022-07-23T04:26:57;21.90;99.90
3262;DHT22;1643;47.746;9.000;2022-07-23T04:29:23;22.00;99.90
3262;DHT22;1643;47.746;9.000;2022-07-23T04:31:49;22.00;99.90
3262;DHT22;1643;47.746;9.000;2022-07-23T04:34:14;22.10;99.90
3262;DHT22;1643;47.746;9.000;2022-07-23T04:36:40;22.10;99.90
3262;DHT22;1643;47.746;9.000;2022-07-23T04:39:06;22.10;99.90
3262;DHT22;1643;47.746;9.000;2022-07-23T04:41:32;22.10;99.90
3262;DHT22;1643;47.746;9.000;2022-07-23T04:43:57;22.10;99.90
3262;DHT22;1643;47.746;9.000;2022-07-23T04:46:23;22.00;99.90
3262;DHT22;1643;47.746;9.000;2022-07-23T04:48:48;22.00;99.90
3262;DHT22;1643;47.746;9.000;2022-07-23T04:51:14;21.90;99.90
3262;DHT22;1643;47.746;9.000;2022-07-23T04:53:40;21.80;99.90
3262;DHT22;1643;47.746;9.000;2022-07-23T04:56:06;21.80;99.90
3262;DHT22;1643;47.746;9.000;2022-07-23T04:58:31;21.80;99.90
3262;DHT22;1643;47.746;9.000;2022-07-23T05:00:57;21.90;99.90
3262;DHT22;1643;47.746;9.000;2022-07-23T05:03:23;21.90;99.90
3262;DHT22;1643;47.746;9.000;2022-07-23T05:05:49;21.90;99.90
3262;DHT22;1643;47.746;9.000;2022-07-23T05:08:15;21.90;99.90
3262;DHT22;1643;47.746;9.000;2022-07-23T05:10:41;21.80;99.90
3262;DHT22;1643;47.746;9.000;2022-07-23T05:13:07;21.70;99.90
3262;DHT22;1643;47.746;9.000;2022-07-23T05:15:32;21.60;99.90
3262;DHT22;1643;47.746;9.000;2022-07-23T05:17:58;21.50;99.90
3262;DHT22;1643;47.746;9.000;2022-07-23T05:20:24;21.60;99.90
3262;DHT22;1643;47.746;9.000;2022-07-23T05:22:49;21.70;99.90
3262;DHT22;1643;47.746;9.000;2022-07-23T05:25:15;21.70;99.90
3262;DHT22;1643;47.746;9.000;2022-07-23T05:27:40;21.70;99.90
3262;DHT22;1643;47.746;9.000;2022-07-23T05:30:07;21.70;99.90
3262;DHT22;1643;47.746;9.000;2022-07-23T05:32:33;21.70;99.90
3262;DHT22;1643;47.746;9.000;2022-07-23T05:34:59;21.70;99.90
3262;DHT22;1643;47.746;9.000;2022-07-23T05:37:25;21.70;99.90
3262;DHT22;1643;47.746;9.000;2022-07-23T05:39:51;21.70;99.90
3262;DHT22;1643;47.746;9.000;2022-07-23T05:42:16;21.70;99.90
3262;DHT22;1643;47.746;9.000;2022-07-23T05:44:42;21.80;99.90
3262;DHT22;1643;47.746;9.000;2022-07-23T05:47:08;21.80;99.90
3262;DHT22;1643;47.746;9.000;2022-07-23T05:49:33;21.80;99.90
3262;DHT22;1643;47.746;9.000;2022-07-23T05:52:03;21.80;99.90
3262;DHT22;1643;47.746;9.000;2022-07-23T05:54:29;21.80;99.90
3262;DHT22;1643;47.746;9.000;2022-07-23T05:56:57;21.80;99.90
3262;DHT22;1643;47.746;9.000;2022-07-23T05:59:23;21.80;99.90
3262;DHT22;1643;47.746;9.000;2022-07-23T06:01:48;21.80;99.90
3262;DHT22;1643;47.746;9.000;2022-07-23T06:04:14;21.80;99.90
3262;DHT22;1643;47.746;9.000;2022-07-23T06:06:40;21.90;99.90
3262;DHT22;1643;47.746;9.000;2022-07-23T06:09:05;21.90;99.90
3262;DHT22;1643;47.746;9.000;2022-07-23T06:11:31;22.00;99.90
3262;DHT22;1643;47.746;9.000;2022-07-23T06:13:56;22.00;99.90
3262;DHT22;1643;47.746;9.000;2022-07-23T06:16:22;22.00;99.90
3262;DHT22;1643;47.746;9.000;2022-07-23T06:18:48;22.00;99.90
3262;DHT22;1643;47.746;9.000;2022-07-23T06:21:13;22.00;99.90
3262;DHT22;1643;47.746;9.000;2022-07-23T06:23:39;22.10;99.90
3262;DHT22;1643;47.746;9.000;2022-07-23T06:26:05;22.10;99.90
3262;DHT22;1643;47.746;9.000;2022-07-23T06:28:30;22.10;99.90
3262;DHT22;1643;47.746;9.000;2022-07-23T06:30:56;22.10;99.90
3262;DHT22;1643;47.746;9.000;2022-07-23T06:33:21;22.20;99.90
3262;DHT22;1643;47.746;9.000;2022-07-23T06:35:47;22.20;99.90
3262;DHT22;1643;47.746;9.000;2022-07-23T06:38:12;22.20;99.90
3262;DHT22;1643;47.746;9.000;2022-07-23T06:40:38;22.20;99.90
3262;DHT22;1643;47.746;9.000;2022-07-23T06:43:04;22.20;99.90
3262;DHT22;1643;47.746;9.000;2022-07-23T06:45:29;22.20;99.90
3262;DHT22;1643;47.746;9.000;2022-07-23T06:47:55;22.20;99.90
3262;DHT22;1643;47.746;9.000;2022-07-23T06:50:21;22.20;99.90
3262;DHT22;1643;47.746;9.000;2022-07-23T06:52:46;22.20;99.90
3262;DHT22;1643;47.746;9.000;2022-07-23T06:55:12;22.20;99.90
3262;DHT22;1643;47.746;9.000;2022-07-23T06:57:38;22.20;99.90
3262;DHT22;1643;47.746;9.000;2022-07-23T07:00:04;22.20;99.90
3262;DHT22;1643;47.746;9.000;2022-07-23T07:02:31;22.30;99.90
3262;DHT22;1643;47.746;9.000;2022-07-23T07:04:56;22.30;99.90
3262;DHT22;1643;47.746;9.000;2022-07-23T07:07:22;22.40;99.90
3262;DHT22;1643;47.746;9.000;2022-07-23T07:09:47;22.50;99.90
3262;DHT22;1643;47.746;9.000;2022-07-23T07:12:13;22.60;99.90
3262;DHT22;1643;47.746;9.000;2022-07-23T07:14:39;22.60;99.90
3262;DHT22;1643;47.746;9.000;2022-07-23T07:17:04;22.60;99.90
3262;DHT22;1643;47.746;9.000;2022-07-23T07:19:30;22.70;99.90
3262;DHT22;1643;47.746;9.000;2022-07-23T07:21:55;22.60;99.90
3262;DHT22;1643;47.746;9.000;2022-07-23T07:24:21;22.60;99.90
3262;DHT22;1643;47.746;9.000;2022-07-23T07:26:47;22.50;99.90
3262;DHT22;1643;47.746;9.000;2022-07-23T07:29:12;22.40;99.90
3262;DHT22;1643;47.746;9.000;2022-07-23T07:31:38;22.40;99.90
3262;DHT22;1643;47.746;9.000;2022-07-23T07:34:04;22.40;99.90
3262;DHT22;1643;47.746;9.000;2022-07-23T07:36:29;22.30;99.90
3262;DHT22;1643;47.746;9.000;2022-07-23T07:38:55;22.30;99.90
3262;DHT22;1643;47.746;9.000;2022-07-23T07:41:21;22.20;99.90
3262;DHT22;1643;47.746;9.000;2022-07-23T07:43:50;22.10;99.90
3262;DHT22;1643;47.746;9.000;2022-07-23T07:46:16;22.10;99.90
3262;DHT22;1643;47.746;9.000;2022-07-23T07:48:41;22.10;99.90
3262;DHT22;1643;47.746;9.000;2022-07-23T07:51:07;22.10;99.90
3262;DHT22;1643;47.746;9.000;2022-07-23T07:53:33;22.20;99.90
3262;DHT22;1643;47.746;9.000;2022-07-23T07:55:59;22.30;99.90
3262;DHT22;1643;47.746;9.000;2022-07-23T07:58:24;22.30;99.90
3262;DHT22;1643;47.746;9.000;2022-07-23T08:00:50;22.40;99.90
3262;DHT22;1643;47.746;9.000;2022-07-23T08:03:17;22.50;99.90
3262;DHT22;1643;47.746;9.000;2022-07-23T08:05:43;22.50;99.90
3262;DHT22;1643;47.746;9.000;2022-07-23T08:08:08;22.40;99.90
3262;DHT22;1643;47.746;9.000;2022-07-23T08:10:40;22.40;99.90
3262;DHT22;1643;47.746;9.000;2022-07-23T08:13:06;22.50;99.90
3262;DHT22;1643;47.746;9.000;2022-07-23T08:15:31;22.40;99.90
3262;DHT22;1643;47.746;9.000;2022-07-23T08:17:57;22.50;99.90
3262;DHT22;1643;47.746;9.000;2022-07-23T08:20:24;22.40;99.90
3262;DHT22;1643;47.746;9.000;2022-07-23T08:25:34;22.40;99.90
3262;DHT22;1643;47.746;9.000;2022-07-23T08:28:02;22.50;99.90
3262;DHT22;1643;47.746;9.000;2022-07-23T08:30:29;22.40;99.90
3262;DHT22;1643;47.746;9.000;2022-07-23T08:33:07;22.50;99.90
3262;DHT22;1643;47.746;9.000;2022-07-23T08:35:38;22.60;99.90
3262;DHT22;1643;47.746;9.000;2022-07-23T08:38:06;22.60;99.90
3262;DHT22;1643;47.746;9.000;2022-07-23T08:40:34;22.60;99.90
3262;DHT22;1643;47.746;9.000;2022-07-23T08:43:07;22.60;99.90
3262;DHT22;1643;47.746;9.000;2022-07-23T08:45:37;22.70;99.90
3262;DHT22;1643;47.746;9.000;2022-07-23T08:48:06;22.60;99.90
3262;DHT22;1643;47.746;9.000;2022-07-23T08:50:32;22.60;99.90
3262;DHT22;1643;47.746;9.000;2022-07-23T08:53:00;22.60;99.90
3262;DHT22;1643;47.746;9.000;2022-07-23T08:55:26;22.60;99.90
3262;DHT22;1643;47.746;9.000;2022-07-23T08:57:52;22.40;99.90
3262;DHT22;1643;47.746;9.000;2022-07-23T09:00:19;22.50;99.90
3262;DHT22;1643;47.746;9.000;2022-07-23T09:02:46;22.60;99.90
3262;DHT22;1643;47.746;9.000;2022-07-23T09:05:13;22.60;99.90
3262;DHT22;1643;47.746;9.000;2022-07-23T09:10:56;23.00;99.90
3262;DHT22;1643;47.746;9.000;2022-07-23T09:15:50;23.10;99.90
3262;DHT22;1643;47.746;9.000;2022-07-23T09:18:16;23.00;99.90
3262;DHT22;1643;47.746;9.000;2022-07-23T09:20:43;23.00;99.90
3262;DHT22;1643;47.746;9.000;2022-07-23T09:23:09;23.00;99.90
3262;DHT22;1643;47.746;9.000;2022-07-23T09:25:35;23.00;99.90
3262;DHT22;1643;47.746;9.000;2022-07-23T09:28:01;23.00;99.90
3262;DHT22;1643;47.746;9.000;2022-07-23T09:30:32;23.10;99.90
3262;DHT22;1643;47.746;9.000;2022-07-23T09:33:15;23.00;99.90
3262;DHT22;1643;47.746;9.000;2022-07-23T09:35:48;23.00;99.90
3262;DHT22;1643;47.746;9.000;2022-07-23T09:38:15;22.80;99.90
3262;DHT22;1643;47.746;9.000;2022-07-23T09:40:41;22.80;99.90
3262;DHT22;1643;47.746;9.000;2022-07-23T09:43:07;22.80;99.90
3262;DHT22;1643;47.746;9.000;2022-07-23T09:45:32;22.80;99.90
3262;DHT22;1643;47.746;9.000;2022-07-23T09:48:30;22.70;99.90
3262;DHT22;1643;47.746;9.000;2022-07-23T09:51:02;22.90;99.90
3262;DHT22;1643;47.746;9.000;2022-07-23T09:53:30;23.00;99.90
3262;DHT22;1643;47.746;9.000;2022-07-23T09:55:58;23.10;99.90
3262;DHT22;1643;47.746;9.000;2022-07-23T09:58:26;23.10;99.90
3262;DHT22;1643;47.746;9.000;2022-07-23T10:00:55;23.10;99.90
3262;DHT22;1643;47.746;9.000;2022-07-23T10:03:23;23.00;99.90
3262;DHT22;1643;47.746;9.000;2022-07-23T10:05:50;23.10;99.90
3262;DHT22;1643;47.746;9.000;2022-07-23T10:08:17;23.10;99.90
3262;DHT22;1643;47.746;9.000;2022-07-23T10:10:45;23.10;99.90
3262;DHT22;1643;47.746;9.000;2022-07-23T10:13:11;23.10;99.90
3262;DHT22;1643;47.746;9.000;2022-07-23T10:15:56;23.20;99.90
3262;DHT22;1643;47.746;9.000;2022-07-23T10:18:21;23.20;99.90
3262;DHT22;1643;47.746;9.000;2022-07-23T10:20:48;23.40;99.90
3262;DHT22;1643;47.746;9.000;2022-07-23T10:26:20;23.60;99.90
3262;DHT22;1643;47.746;9.000;2022-07-23T10:29:35;23.70;99.90
3262;DHT22;1643;47.746;9.000;2022-07-23T10:34:21;24.10;99.90
3262;DHT22;1643;47.746;9.000;2022-07-23T10:37:07;23.90;99.90
3262;DHT22;1643;47.746;9.000;2022-07-23T10:39:37;23.80;99.90
3262;DHT22;1643;47.746;9.000;2022-07-23T10:42:13;23.60;99.90
3262;DHT22;1643;47.746;9.000;2022-07-23T10:44:41;23.60;99.90
3262;DHT22;1643;47.746;9.000;2022-07-23T10:47:08;23.50;99.90
3262;DHT22;1643;47.746;9.000;2022-07-23T10:49:37;23.40;99.90
3262;DHT22;1643;47.746;9.000;2022-07-23T10:54:44;23.40;99.90
3262;DHT22;1643;47.746;9.000;2022-07-23T10:57:12;23.30;99.90
3262;DHT22;1643;47.746;9.000;2022-07-23T11:02:24;23.50;99.90
3262;DHT22;1643;47.746;9.000;2022-07-23T11:04:52;23.60;99.90
3262;DHT22;1643;47.746;9.000;2022-07-23T11:07:18;23.70;99.90
3262;DHT22;1643;47.746;9.000;2022-07-23T11:09:45;23.80;99.90
3262;DHT22;1643;47.746;9.000;2022-07-23T11:14:58;23.90;99.90
3262;DHT22;1643;47.746;9.000;2022-07-23T11:17:24;23.90;99.90
3262;DHT22;1643;47.746;9.000;2022-07-23T11:25:01;23.90;99.90
3262;DHT22;1643;47.746;9.000;2022-07-23T11:27:44;23.80;99.90
3262;DHT22;1643;47.746;9.000;2022-07-23T11:35:38;23.60;99.90
3262;DHT22;1643;47.746;9.000;2022-07-23T11:38:14;23.50;99.90
3262;DHT22;1643;47.746;9.000;2022-07-23T11:40:41;23.50;99.90
3262;DHT22;1643;47.746;9.000;2022-07-23T11:43:09;23.50;99.90
3262;DHT22;1643;47.746;9.000;2022-07-23T11:45:38;23.50;99.90
3262;DHT22;1643;47.746;9.000;2022-07-23T11:48:05;23.50;99.90
3262;DHT22;1643;47.746;9.000;2022-07-23T11:50:31;23.60;99.90
3262;DHT22;1643;47.746;9.000;2022-07-23T11:52:57;23.60;99.90
3262;DHT22;1643;47.746;9.000;2022-07-23T11:55:24;23.60;99.90
3262;DHT22;1643;47.746;9.000;2022-07-23T11:57:52;23.70;99.90
3262;DHT22;1643;47.746;9.000;2022-07-23T12:00:27;23.70;99.90
3262;DHT22;1643;47.746;9.000;2022-07-23T12:02:58;23.80;99.90
3262;DHT22;1643;47.746;9.000;2022-07-23T12:05:31;23.90;99.90
3262;DHT22;1643;47.746;9.000;2022-07-23T12:07:59;23.90;99.90
3262;DHT22;1643;47.746;9.000;2022-07-23T12:10:39;24.20;99.90
3262;DHT22;1643;47.746;9.000;2022-07-23T12:13:20;24.30;99.90
3262;DHT22;1643;47.746;9.000;2022-07-23T12:15:56;24.40;99.90
3262;DHT22;1643;47.746;9.000;2022-07-23T12:18:25;24.70;99.90
3262;DHT22;1643;47.746;9.000;2022-07-23T12:20:53;24.80;99.90
3262;DHT22;1643;47.746;9.000;2022-07-23T12:23:20;24.80;99.90
3262;DHT22;1643;47.746;9.000;2022-07-23T12:25:48;24.90;99.90
3262;DHT22;1643;47.746;9.000;2022-07-23T12:28:16;24.90;99.90
3262;DHT22;1643;47.746;9.000;2022-07-23T12:30:53;25.00;99.90
3262;DHT22;1643;47.746;9.000;2022-07-23T12:35:48;25.00;99.90
3262;DHT22;1643;47.746;9.000;2022-07-23T12:38:20;25.10;99.90
3262;DHT22;1643;47.746;9.000;2022-07-23T12:40:54;25.10;99.90
3262;DHT22;1643;47.746;9.000;2022-07-23T12:43:30;25.30;99.90
3262;DHT22;1643;47.746;9.000;2022-07-23T12:46:06;25.50;99.90
3262;DHT22;1643;47.746;9.000;2022-07-23T12:48:36;25.60;99.90
3262;DHT22;1643;47.746;9.000;2022-07-23T12:51:03;25.60;99.90
3262;DHT22;1643;47.746;9.000;2022-07-23T12:53:31;25.80;99.90
3262;DHT22;1643;47.746;9.000;2022-07-23T12:56:06;26.00;99.90
3262;DHT22;1643;47.746;9.000;2022-07-23T13:04:07;25.90;99.90
3262;DHT22;1643;47.746;9.000;2022-07-23T13:06:38;25.90;99.90
3262;DHT22;1643;47.746;9.000;2022-07-23T13:09:06;25.90;99.90
3262;DHT22;1643;47.746;9.000;2022-07-23T13:11:33;25.90;99.90
3262;DHT22;1643;47.746;9.000;2022-07-23T13:13:59;25.90;99.90
3262;DHT22;1643;47.746;9.000;2022-07-23T13:16:27;25.80;99.90
3262;DHT22;1643;47.746;9.000;2022-07-23T13:18:54;26.10;99.90
3262;DHT22;1643;47.746;9.000;2022-07-23T13:21:19;26.30;99.90
3262;DHT22;1643;47.746;9.000;2022-07-23T13:23:45;26.30;99.90
3262;DHT22;1643;47.746;9.000;2022-07-23T13:26:11;26.30;99.90
3262;DHT22;1643;47.746;9.000;2022-07-23T13:28:36;26.50;99.90
3262;DHT22;1643;47.746;9.000;2022-07-23T13:31:02;26.60;99.90
3262;DHT22;1643;47.746;9.000;2022-07-23T13:33:28;26.40;99.90
3262;DHT22;1643;47.746;9.000;2022-07-23T13:35:54;26.50;99.90
3262;DHT22;1643;47.746;9.000;2022-07-23T13:38:21;26.60;99.90
3262;DHT22;1643;47.746;9.000;2022-07-23T13:40:48;26.60;99.90
3262;DHT22;1643;47.746;9.000;2022-07-23T13:43:17;26.70;99.90
3262;DHT22;1643;47.746;9.000;2022-07-23T13:45:43;26.80;99.90
3262;DHT22;1643;47.746;9.000;2022-07-23T13:48:11;26.90;99.90
3262;DHT22;1643;47.746;9.000;2022-07-23T13:50:38;26.90;99.90
3262;DHT22;1643;47.746;9.000;2022-07-23T13:53:06;27.00;99.90
3262;DHT22;1643;47.746;9.000;2022-07-23T13:55:33;27.20;99.90
3262;DHT22;1643;47.746;9.000;2022-07-23T13:57:59;27.20;99.90
3262;DHT22;1643;47.746;9.000;2022-07-23T14:00:25;27.30;99.90
3262;DHT22;1643;47.746;9.000;2022-07-23T14:02:51;27.40;99.90
3262;DHT22;1643;47.746;9.000;2022-07-23T14:05:17;27.60;99.90
3262;DHT22;1643;47.746;9.000;2022-07-23T14:07:42;27.70;99.90
3262;DHT22;1643;47.746;9.000;2022-07-23T14:10:10;27.60;99.90
3262;DHT22;1643;47.746;9.000;2022-07-23T14:12:36;27.70;99.90
3262;DHT22;1643;47.746;9.000;2022-07-23T14:15:03;27.70;99.90
3262;DHT22;1643;47.746;9.000;2022-07-23T14:17:30;27.70;99.90
3262;DHT22;1643;47.746;9.000;2022-07-23T14:19:57;27.80;99.90
3262;DHT22;1643;47.746;9.000;2022-07-23T14:22:22;27.80;99.90
3262;DHT22;1643;47.746;9.000;2022-07-23T14:24:48;27.70;99.90
3262;DHT22;1643;47.746;9.000;2022-07-23T14:27:14;27.50;99.90
3262;DHT22;1643;47.746;9.000;2022-07-23T14:29:40;27.40;99.90
3262;DHT22;1643;47.746;9.000;2022-07-23T14:32:06;27.60;99.90
3262;DHT22;1643;47.746;9.000;2022-07-23T14:34:32;27.60;99.90
3262;DHT22;1643;47.746;9.000;2022-07-23T14:36:59;27.60;99.90
3262;DHT22;1643;47.746;9.000;2022-07-23T14:39:25;27.50;99.90
3262;DHT22;1643;47.746;9.000;2022-07-23T14:41:51;27.40;99.90
3262;DHT22;1643;47.746;9.000;2022-07-23T14:44:17;27.30;99.90
3262;DHT22;1643;47.746;9.000;2022-07-23T14:46:42;27.30;99.90
3262;DHT22;1643;47.746;9.000;2022-07-23T14:49:08;27.20;99.90
3262;DHT22;1643;47.746;9.000;2022-07-23T14:51:34;27.20;99.90
3262;DHT22;1643;47.746;9.000;2022-07-23T14:54:00;27.10;99.90
3262;DHT22;1643;47.746;9.000;2022-07-23T14:56:25;27.10;99.90
3262;DHT22;1643;47.746;9.000;2022-07-23T14:58:51;27.10;99.90
3262;DHT22;1643;47.746;9.000;2022-07-23T15:01:17;27.20;99.90
3262;DHT22;1643;47.746;9.000;2022-07-23T15:03:42;27.30;99.90
3262;DHT22;1643;47.746;9.000;2022-07-23T15:06:08;27.40;99.90
3262;DHT22;1643;47.746;9.000;2022-07-23T15:08:34;27.50;99.90
3262;DHT22;1643;47.746;9.000;2022-07-23T15:11:00;27.60;99.90
3262;DHT22;1643;47.746;9.000;2022-07-23T15:13:26;27.60;99.90
3262;DHT22;1643;47.746;9.000;2022-07-23T15:15:51;27.90;99.90
3262;DHT22;1643;47.746;9.000;2022-07-23T15:18:17;28.10;99.90
3262;DHT22;1643;47.746;9.000;2022-07-23T15:20:43;28.20;99.90
3262;DHT22;1643;47.746;9.000;2022-07-23T15:23:08;28.10;99.90
3262;DHT22;1643;47.746;9.000;2022-07-23T15:25:34;28.30;99.90
3262;DHT22;1643;47.746;9.000;2022-07-23T15:28:01;28.50;99.90
3262;DHT22;1643;47.746;9.000;2022-07-23T15:30:27;28.70;99.90
3262;DHT22;1643;47.746;9.000;2022-07-23T15:32:53;28.80;99.90
3262;DHT22;1643;47.746;9.000;2022-07-23T15:35:19;28.70;99.90
3262;DHT22;1643;47.746;9.000;2022-07-23T15:37:45;28.50;99.90
3262;DHT22;1643;47.746;9.000;2022-07-23T15:40:12;28.50;99.90
3262;DHT22;1643;47.746;9.000;2022-07-23T15:42:38;28.70;99.90
3262;DHT22;1643;47.746;9.000;2022-07-23T15:45:04;28.80;99.90
3262;DHT22;1643;47.746;9.000;2022-07-23T15:47:30;28.80;99.90
3262;DHT22;1643;47.746;9.000;2022-07-23T15:49:56;28.70;99.90
3262;DHT22;1643;47.746;9.000;2022-07-23T15:52:21;28.60;99.90
3262;DHT22;1643;47.746;9.000;2022-07-23T15:54:48;28.60;99.90
3262;DHT22;1643;47.746;9.000;2022-07-23T15:57:13;28.60;99.90
3262;DHT22;1643;47.746;9.000;2022-07-23T15:59:39;28.50;99.90
3262;DHT22;1643;47.746;9.000;2022-07-23T16:02:05;28.50;99.90
3262;DHT22;1643;47.746;9.000;2022-07-23T16:04:31;28.50;99.90
3262;DHT22;1643;47.746;9.000;2022-07-23T16:06:57;28.40;99.90
3262;DHT22;1643;47.746;9.000;2022-07-23T16:09:23;28.20;99.90
3262;DHT22;1643;47.746;9.000;2022-07-23T16:11:49;28.10;99.90
3262;DHT22;1643;47.746;9.000;2022-07-23T16:14:15;28.10;99.90
3262;DHT22;1643;47.746;9.000;2022-07-23T16:16:41;28.30;99.90
3262;DHT22;1643;47.746;9.000;2022-07-23T16:19:08;28.30;99.90
3262;DHT22;1643;47.746;9.000;2022-07-23T16:21:34;28.50;99.90
3262;DHT22;1643;47.746;9.000;2022-07-23T16:24:00;28.40;99.90
3262;DHT22;1643;47.746;9.000;2022-07-23T16:26:25;28.50;99.90
3262;DHT22;1643;47.746;9.000;2022-07-23T16:28:51;28.50;99.90
3262;DHT22;1643;47.746;9.000;2022-07-23T16:31:17;28.20;99.90
3262;DHT22;1643;47.746;9.000;2022-07-23T16:33:43;28.10;99.90
3262;DHT22;1643;47.746;9.000;2022-07-23T16:36:09;28.00;99.90
3262;DHT22;1643;47.746;9.000;2022-07-23T16:38:36;27.90;99.90
3262;DHT22;1643;47.746;9.000;2022-07-23T16:41:03;27.80;99.90